createdAt,value
2023-10-10T00:00:08.718Z,100827.69
2023-10-10T00:01:12.349Z,100827.00
2023-10-10T00:02:21.706Z,100820.72
2023-10-10T00:03:28.564Z,100825.44
2023-10-10T00:04:34.314Z,100820.72
2023-10-10T00:05:37.929Z,100823.72
2023-10-10T00:06:42.108Z,100831.41
2023-10-10T00:07:45.783Z,100826.28
2023-10-10T00:08:51.502Z,100830.88
2023-10-10T00:09:54.602Z,100825.13
2023-10-10T00:10:57.608Z,100831.00
2023-10-10T00:12:00.602Z,100837.97
2023-10-10T00:13:08.768Z,100836.03
2023-10-10T00:14:18.975Z,100843.25
2023-10-10T00:15:27.579Z,100842.38
2023-10-10T00:16:37.743Z,100839.88
2023-10-10T00:17:42.402Z,100844.91
2023-10-10T00:18:46.146Z,100840.19
2023-10-10T00:19:53.853Z,100848.41
2023-10-10T00:21:09.774Z,100851.06
2023-10-10T00:22:13.477Z,100857.47
2023-10-10T00:23:18.413Z,100869.41
2023-10-10T00:24:22.365Z,100861.91
2023-10-10T00:25:32.100Z,100865.97
2023-10-10T00:26:35.847Z,100877.78
2023-10-10T00:27:40.992Z,100872.75
2023-10-10T00:28:46.521Z,100875.97
2023-10-10T00:29:50.219Z,100876.81
2023-10-10T00:30:53.830Z,100873.06
2023-10-10T00:31:57.070Z,100871.69
2023-10-10T00:33:04.111Z,100864.19
2023-10-10T00:34:08.571Z,100857.38
2023-10-10T00:35:11.648Z,100859.88
2023-10-10T00:36:23.786Z,100861.69
2023-10-10T00:37:35.827Z,100869.47
2023-10-10T00:38:39.198Z,100865.28
2023-10-10T00:39:42.239Z,100862.94
2023-10-10T00:40:48.560Z,100862.22
2023-10-10T00:41:51.572Z,100866.41
2023-10-10T00:42:54.682Z,100865.97
2023-10-10T00:43:57.721Z,100878.06
2023-10-10T00:45:05.573Z,100884.44
2023-10-10T00:46:12.717Z,100888.38
2023-10-10T00:47:27.893Z,100886.97
2023-10-10T00:48:31.498Z,100886.69
2023-10-10T00:49:38.455Z,100883.63
2023-10-10T00:50:43.372Z,100884.59
2023-10-10T00:51:48.391Z,100884.19
2023-10-10T00:52:56.920Z,100883.91
2023-10-10T00:54:27.775Z,100884.44
2023-10-10T00:55:34.760Z,100889.59
2023-10-10T00:56:38.281Z,100881.25
2023-10-10T00:57:41.840Z,100878.06
2023-10-10T00:58:47.332Z,100890.88
2023-10-10T00:59:55.849Z,100886.97
2023-10-10T01:00:59.743Z,100885.03
2023-10-10T01:02:11.655Z,100884.44
2023-10-10T01:03:23.554Z,100877.78
2023-10-10T01:04:55.790Z,100879.47
2023-10-10T01:05:59.757Z,100872.81
2023-10-10T01:07:09.880Z,100874.34
2023-10-10T01:08:18.390Z,100872.63
2023-10-10T01:09:34.726Z,100866.41
2023-10-10T01:10:50.806Z,100873.06
2023-10-10T01:11:54.332Z,100884.03
2023-10-10T01:12:57.347Z,100888.91
2023-10-10T01:14:01.325Z,100890.69
2023-10-10T01:15:14.032Z,100889.75
2023-10-10T01:16:18.956Z,100884.03
2023-10-10T01:17:32.334Z,100883.75
2023-10-10T01:18:52.925Z,100890.03
2023-10-10T01:20:00.254Z,100882.78
2023-10-10T01:21:04.189Z,100892.25
2023-10-10T01:22:23.668Z,100894.03
2023-10-10T01:23:29.500Z,100900.16
2023-10-10T01:24:32.879Z,100902.78
2023-10-10T01:25:35.931Z,100898.63
2023-10-10T01:26:45.405Z,100892.50
2023-10-10T01:27:48.407Z,100897.94
2023-10-10T01:28:51.386Z,100891.00
2023-10-10T01:30:19.233Z,100895.16
2023-10-10T01:31:22.262Z,100892.53
2023-10-10T01:32:25.315Z,100892.53
2023-10-10T01:33:42.903Z,100885.81
2023-10-10T01:34:46.114Z,100885.97
2023-10-10T01:35:51.085Z,100885.28
2023-10-10T01:36:54.071Z,100878.91
2023-10-10T01:37:57.119Z,100880.56
2023-10-10T01:39:11.141Z,100882.53
2023-10-10T01:40:17.432Z,100881.97
2023-10-10T01:41:24.334Z,100886.41
2023-10-10T01:42:47.860Z,100885.03
2023-10-10T01:43:55.351Z,100885.03
2023-10-10T01:45:09.283Z,100879.75
2023-10-10T01:46:39.512Z,100873.47
2023-10-10T01:47:43.019Z,100874.19
2023-10-10T01:48:46.953Z,100862.66
2023-10-10T01:49:49.959Z,100861.41
2023-10-10T01:50:52.948Z,100843.06
2023-10-10T01:52:05.141Z,100824.47
2023-10-10T01:53:11.147Z,100808.09
2023-10-10T01:54:16.698Z,100813.63
2023-10-10T01:55:19.938Z,100836.28
2023-10-10T01:56:24.766Z,100857.50
2023-10-10T01:57:27.787Z,100856.53
2023-10-10T01:58:30.848Z,100858.50
2023-10-10T01:59:37.104Z,100860.03
2023-10-10T02:00:44.721Z,100867.50
2023-10-10T02:01:49.080Z,100876.25
2023-10-10T02:02:54.467Z,100873.09
2023-10-10T02:03:57.747Z,100888.38
2023-10-10T02:05:01.393Z,100881.94
2023-10-10T02:06:05.121Z,100892.09
2023-10-10T02:07:15.527Z,100895.00
2023-10-10T02:08:18.734Z,100885.16
2023-10-10T02:09:27.340Z,100874.03
2023-10-10T02:10:31.442Z,100874.16
2023-10-10T02:11:34.432Z,100874.72
2023-10-10T02:12:37.433Z,100872.38
2023-10-10T02:13:40.868Z,100879.75
2023-10-10T02:14:44.507Z,100876.69
2023-10-10T02:15:47.528Z,100886.53
2023-10-10T02:16:51.173Z,100890.56
2023-10-10T02:17:56.912Z,100897.50
2023-10-10T02:19:00.572Z,100897.63
2023-10-10T02:20:23.201Z,100891.66
2023-10-10T02:21:44.461Z,100896.69
2023-10-10T02:22:49.142Z,100895.00
2023-10-10T02:23:55.124Z,100887.78
2023-10-10T02:25:16.625Z,100890.84
2023-10-10T02:26:29.651Z,100893.06
2023-10-10T02:27:34.364Z,100898.50
2023-10-10T02:28:50.157Z,100897.50
2023-10-10T02:29:54.719Z,100895.84
2023-10-10T02:31:03.764Z,100896.38
2023-10-10T02:32:14.503Z,100892.75
2023-10-10T02:33:20.460Z,100889.19
2023-10-10T02:34:23.666Z,100887.22
2023-10-10T02:35:35.137Z,100894.44
2023-10-10T02:36:42.324Z,100898.91
2023-10-10T02:37:47.315Z,100894.16
2023-10-10T02:38:59.090Z,100890.97
2023-10-10T02:40:13.536Z,100893.75
2023-10-10T02:41:24.422Z,100894.28
2023-10-10T02:42:29.013Z,100901.94
2023-10-10T02:43:35.200Z,100905.16
2023-10-10T02:44:38.255Z,100904.44
2023-10-10T02:45:46.107Z,100899.31
2023-10-10T02:46:49.312Z,100899.59
2023-10-10T02:47:54.975Z,100895.84
2023-10-10T02:48:57.956Z,100900.84
2023-10-10T02:50:11.591Z,100891.69
2023-10-10T02:51:17.755Z,100902.94
2023-10-10T02:52:26.084Z,100906.69
2023-10-10T02:53:33.576Z,100913.59
2023-10-10T02:54:44.803Z,100917.63
2023-10-10T02:55:53.661Z,100933.06
2023-10-10T02:57:26.950Z,100931.38
2023-10-10T02:58:39.295Z,100926.81
2023-10-10T02:59:45.027Z,100920.16
2023-10-10T03:00:53.745Z,100923.88
2023-10-10T03:02:00.776Z,100936.09
2023-10-10T03:03:04.609Z,100932.22
2023-10-10T03:04:09.929Z,100931.69
2023-10-10T03:05:21.917Z,100935.44
2023-10-10T03:06:29.734Z,100925.69
2023-10-10T03:07:33.829Z,100920.28
2023-10-10T03:08:38.754Z,100920.84
2023-10-10T03:10:05.052Z,100926.81
2023-10-10T03:11:36.721Z,100921.09
2023-10-10T03:12:39.898Z,100912.22
2023-10-10T03:13:55.725Z,100911.13
2023-10-10T03:15:35.503Z,100915.84
2023-10-10T03:17:00.899Z,100913.88
2023-10-10T03:18:10.220Z,100923.88
2023-10-10T03:19:13.373Z,100929.16
2023-10-10T03:20:32.339Z,100927.91
2023-10-10T03:22:04.781Z,100932.50
2023-10-10T03:23:13.870Z,100938.06
2023-10-10T03:24:24.307Z,100930.81
2023-10-10T03:25:38.326Z,100934.44
2023-10-10T03:26:47.347Z,100941.66
2023-10-10T03:27:52.643Z,100934.00
2023-10-10T03:29:05.057Z,100932.19
2023-10-10T03:30:21.605Z,100928.75
2023-10-10T03:31:32.955Z,100929.44
2023-10-10T03:32:57.169Z,100930.00
2023-10-10T03:35:35.542Z,100920.44
2023-10-10T03:37:04.617Z,100923.03
2023-10-10T03:38:27.684Z,100925.53
2023-10-10T03:39:44.882Z,100925.94
2023-10-10T03:41:06.125Z,100930.00
2023-10-10T03:42:29.980Z,100933.19
2023-10-10T03:43:51.896Z,100930.66
2023-10-10T03:45:13.763Z,100939.72
2023-10-10T03:46:54.889Z,100933.72
2023-10-10T03:48:16.491Z,100933.72
2023-10-10T03:49:41.174Z,100930.81
2023-10-10T03:51:04.302Z,100927.50
2023-10-10T03:52:25.531Z,100935.16
2023-10-10T03:53:47.328Z,100929.16
2023-10-10T03:55:08.976Z,100926.66
2023-10-10T03:56:37.913Z,100931.38
2023-10-10T03:57:59.326Z,100935.53
2023-10-10T03:59:22.100Z,100941.94
2023-10-10T04:00:43.568Z,100939.13
2023-10-10T04:02:05.033Z,100934.84
2023-10-10T04:03:26.627Z,100939.72
2023-10-10T04:04:48.204Z,100940.28
2023-10-10T04:06:10.807Z,100939.97
2023-10-10T04:07:32.429Z,100950.38
2023-10-10T04:08:53.818Z,100947.75
2023-10-10T04:10:15.289Z,100945.28
2023-10-10T04:11:37.045Z,100946.94
2023-10-10T04:12:58.636Z,100951.94
2023-10-10T04:14:20.146Z,100945.81
2023-10-10T04:15:41.666Z,100947.34
2023-10-10T04:17:03.756Z,100952.91
2023-10-10T04:18:25.362Z,100946.41
2023-10-10T04:19:47.460Z,100949.44
2023-10-10T04:21:08.943Z,100957.03
2023-10-10T04:22:30.387Z,100947.09
2023-10-10T04:23:51.873Z,100939.44
2023-10-10T04:25:13.482Z,100946.94
2023-10-10T04:26:35.208Z,100947.91
2023-10-10T04:27:56.720Z,100947.63
2023-10-10T04:29:18.217Z,100946.25
2023-10-10T04:30:39.798Z,100946.66
2023-10-10T04:32:01.496Z,100958.19
2023-10-10T04:33:23.011Z,100952.63
2023-10-10T04:34:44.452Z,100967.75
2023-10-10T04:36:05.843Z,100961.81
2023-10-10T04:37:27.406Z,100965.00
2023-10-10T04:38:48.872Z,100965.00
2023-10-10T04:40:10.304Z,100962.50
2023-10-10T04:41:33.083Z,100970.28
2023-10-10T04:42:54.651Z,100959.72
2023-10-10T04:44:18.619Z,100962.09
2023-10-10T04:45:40.210Z,100961.13
2023-10-10T04:47:01.897Z,100958.22
2023-10-10T04:48:24.462Z,100969.75
2023-10-10T04:49:46.306Z,100970.56
2023-10-10T04:51:11.651Z,100970.41
2023-10-10T04:52:33.062Z,100972.66
2023-10-10T04:53:55.021Z,100976.09
2023-10-10T04:55:16.524Z,100970.81
2023-10-10T04:56:39.744Z,100970.81
2023-10-10T04:58:01.056Z,100973.78
2023-10-10T04:59:22.468Z,100975.81
2023-10-10T05:00:43.603Z,100967.75
2023-10-10T05:02:04.799Z,100966.38
2023-10-10T05:03:26.592Z,100965.00
2023-10-10T05:04:48.217Z,100968.47
2023-10-10T05:06:20.050Z,100977.34
2023-10-10T05:07:41.270Z,100982.50
2023-10-10T05:09:03.043Z,100979.72
2023-10-10T05:10:24.702Z,100971.41
2023-10-10T05:11:46.604Z,100972.25
2023-10-10T05:13:08.269Z,100980.44
2023-10-10T05:14:29.506Z,100979.44
2023-10-10T05:15:51.490Z,100979.03
2023-10-10T05:17:13.154Z,100982.25
2023-10-10T05:18:34.957Z,100984.16
2023-10-10T05:19:56.190Z,100990.00
2023-10-10T05:21:17.494Z,100988.06
2023-10-10T05:22:38.720Z,100987.25
2023-10-10T05:23:49.051Z,100982.09
2023-10-10T05:24:56.398Z,100996.13
2023-10-10T05:26:00.885Z,100998.78
2023-10-10T05:27:03.963Z,101000.00
2023-10-10T05:28:06.970Z,101000.88
2023-10-10T05:29:11.944Z,100997.53
2023-10-10T05:30:26.669Z,101000.03
2023-10-10T05:31:32.321Z,101002.78
2023-10-10T05:32:35.590Z,101002.53
2023-10-10T05:33:38.613Z,101002.78
2023-10-10T05:34:42.180Z,101005.84
2023-10-10T05:35:45.388Z,101002.22
2023-10-10T05:36:49.334Z,101008.34
2023-10-10T05:37:52.294Z,101009.72
2023-10-10T05:38:55.282Z,101012.09
2023-10-10T05:39:59.392Z,101021.09
2023-10-10T05:41:04.195Z,101015.41
2023-10-10T05:42:10.012Z,101012.50
2023-10-10T05:43:20.486Z,101014.34
2023-10-10T05:44:23.516Z,101014.34
2023-10-10T05:45:26.856Z,101012.78
2023-10-10T05:46:31.856Z,101020.03
2023-10-10T05:47:37.152Z,101019.63
2023-10-10T05:48:40.687Z,101009.75
2023-10-10T05:49:43.715Z,101019.47
2023-10-10T05:50:49.586Z,101018.94
2023-10-10T05:51:53.211Z,101012.53
2023-10-10T05:52:56.313Z,101020.19
2023-10-10T05:53:59.325Z,101024.38
2023-10-10T05:55:02.327Z,101022.28
2023-10-10T05:56:14.723Z,101026.44
2023-10-10T05:57:18.117Z,101026.03
2023-10-10T05:58:24.394Z,101024.63
2023-10-10T05:59:29.813Z,101022.84
2023-10-10T06:00:43.273Z,101028.69
2023-10-10T06:01:46.286Z,101031.72
2023-10-10T06:02:49.316Z,101024.50
2023-10-10T06:03:52.684Z,101029.22
2023-10-10T06:04:55.790Z,101025.63
2023-10-10T06:05:59.746Z,101029.53
2023-10-10T06:07:04.832Z,101029.09
2023-10-10T06:08:08.193Z,101036.72
2023-10-10T06:09:20.242Z,101034.78
2023-10-10T06:10:30.003Z,101038.13
2023-10-10T06:11:35.575Z,101040.38
2023-10-10T06:12:41.272Z,101038.41
2023-10-10T06:13:47.952Z,101036.44
2023-10-10T06:14:51.089Z,101035.34
2023-10-10T06:15:54.092Z,101042.31
2023-10-10T06:16:57.154Z,101049.53
2023-10-10T06:18:09.651Z,101053.44
2023-10-10T06:19:22.116Z,101053.44
2023-10-10T06:20:25.699Z,101064.84
2023-10-10T06:21:30.886Z,101065.66
2023-10-10T06:22:34.123Z,101063.59
2023-10-10T06:23:37.199Z,101072.34
2023-10-10T06:24:40.503Z,101069.28
2023-10-10T06:25:44.786Z,101076.50
2023-10-10T06:26:49.005Z,101072.31
2023-10-10T06:27:55.558Z,101070.69
2023-10-10T06:28:58.580Z,101075.97
2023-10-10T06:30:01.599Z,101079.56
2023-10-10T06:31:11.707Z,101082.91
2023-10-10T06:32:17.407Z,101083.31
2023-10-10T06:33:31.114Z,101082.34
2023-10-10T06:34:38.177Z,101081.09
2023-10-10T06:35:41.417Z,101080.94
2023-10-10T06:36:49.051Z,101082.06
2023-10-10T06:37:54.774Z,101075.69
2023-10-10T06:39:06.740Z,101081.50
2023-10-10T06:40:11.055Z,101079.97
2023-10-10T06:41:19.287Z,101077.91
2023-10-10T06:42:28.620Z,101075.09
2023-10-10T06:43:34.521Z,101073.44
2023-10-10T06:44:40.609Z,101074.00
2023-10-10T06:46:49.374Z,101085.13
2023-10-10T06:47:53.582Z,101077.75
2023-10-10T06:49:05.598Z,101074.97
2023-10-10T06:50:15.229Z,101068.44
2023-10-10T06:51:23.481Z,101067.91
2023-10-10T06:52:28.924Z,101068.44
2023-10-10T06:53:38.024Z,101068.44
2023-10-10T06:54:45.945Z,101079.00
2023-10-10T06:55:48.945Z,101073.19
2023-10-10T06:57:01.036Z,101074.28
2023-10-10T06:58:06.705Z,101075.94
2023-10-10T06:59:17.895Z,101081.50
2023-10-10T07:00:29.812Z,101083.19
2023-10-10T07:01:33.046Z,101080.38
2023-10-10T07:02:41.629Z,101075.66
2023-10-10T07:03:48.292Z,101078.16
2023-10-10T07:04:54.140Z,101083.59
2023-10-10T07:05:57.932Z,101073.69
2023-10-10T07:07:07.201Z,101074.81
2023-10-10T07:08:26.219Z,101081.50
2023-10-10T07:09:30.357Z,101077.59
2023-10-10T07:10:37.788Z,101076.63
2023-10-10T07:11:40.899Z,101076.63
2023-10-10T07:12:48.571Z,101084.84
2023-10-10T07:14:00.086Z,101076.34
2023-10-10T07:15:07.829Z,101080.25
2023-10-10T07:16:11.020Z,101079.28
2023-10-10T07:17:17.227Z,101080.38
2023-10-10T07:18:23.899Z,101081.63
2023-10-10T07:19:32.771Z,101085.94
2023-10-10T07:20:55.796Z,101088.44
2023-10-10T07:22:01.663Z,101095.69
2023-10-10T07:23:08.560Z,101093.56
2023-10-10T07:24:15.399Z,101087.88
2023-10-10T07:25:44.631Z,101102.38
2023-10-10T07:27:00.086Z,101091.22
2023-10-10T07:28:05.767Z,101094.97
2023-10-10T07:29:29.089Z,101093.03
2023-10-10T07:30:35.769Z,101085.94
2023-10-10T07:31:41.642Z,101088.28
2023-10-10T07:32:49.675Z,101101.63
2023-10-10T07:33:58.020Z,101101.09
2023-10-10T07:35:01.392Z,101095.63
2023-10-10T07:36:06.720Z,101100.38
2023-10-10T07:37:10.820Z,101093.41
2023-10-10T07:38:16.929Z,101093.28
2023-10-10T07:39:40.151Z,101090.94
2023-10-10T07:40:43.480Z,101082.16
2023-10-10T07:41:46.855Z,101083.97
2023-10-10T07:42:51.770Z,101085.63
2023-10-10T07:44:00.781Z,101087.28
2023-10-10T07:45:04.759Z,101075.75
2023-10-10T07:46:23.795Z,101087.75
2023-10-10T07:47:28.362Z,101089.28
2023-10-10T07:48:37.647Z,101086.63
2023-10-10T07:49:51.908Z,101090.34
2023-10-10T07:51:07.591Z,101084.81
2023-10-10T07:52:17.968Z,101083.41
2023-10-10T07:53:21.308Z,101079.75
2023-10-10T07:54:43.116Z,101084.34
2023-10-10T07:56:02.492Z,101079.47
2023-10-10T07:57:08.717Z,101087.56
2023-10-10T07:58:11.875Z,101087.69
2023-10-10T07:59:18.014Z,101084.66
2023-10-10T08:00:28.028Z,101095.34
2023-10-10T08:01:31.102Z,101085.03
2023-10-10T08:02:36.124Z,101089.63
2023-10-10T08:03:45.656Z,101088.81
2023-10-10T08:04:51.097Z,101089.47
2023-10-10T08:05:54.080Z,101092.09
2023-10-10T08:06:58.582Z,101090.88
2023-10-10T08:08:06.110Z,101097.97
2023-10-10T08:09:17.997Z,101108.09
2023-10-10T08:10:31.282Z,101094.50
2023-10-10T08:11:37.854Z,101103.25
2023-10-10T08:12:42.903Z,101091.03
2023-10-10T08:13:49.995Z,101098.09
2023-10-10T08:15:00.725Z,101094.22
2023-10-10T08:16:04.589Z,101098.94
2023-10-10T08:17:20.285Z,101098.38
2023-10-10T08:18:50.626Z,101099.22
2023-10-10T08:19:54.967Z,101101.28
2023-10-10T08:20:57.990Z,101107.44
2023-10-10T08:22:13.496Z,101102.53
2023-10-10T08:23:18.044Z,101102.53
2023-10-10T08:24:21.424Z,101109.91
2023-10-10T08:25:24.606Z,101103.91
2023-10-10T08:26:30.990Z,101109.06
2023-10-10T08:27:34.572Z,101112.25
2023-10-10T08:28:37.626Z,101114.50
2023-10-10T08:29:41.686Z,101112.56
2023-10-10T08:30:44.815Z,101110.47
2023-10-10T08:31:47.849Z,101107.56
2023-10-10T08:32:50.914Z,101109.50
2023-10-10T08:33:53.961Z,101107.03
2023-10-10T08:34:58.011Z,101107.44
2023-10-10T08:36:01.034Z,101104.78
2023-10-10T08:37:05.170Z,101108.09
2023-10-10T08:38:08.378Z,101110.63
2023-10-10T08:39:33.589Z,101110.03
2023-10-10T08:40:38.132Z,101123.53
2023-10-10T08:41:42.576Z,101139.25
2023-10-10T08:42:45.608Z,101133.78
2023-10-10T08:43:54.541Z,101135.50
2023-10-10T08:44:59.698Z,101140.06
2023-10-10T08:46:10.059Z,101134.22
2023-10-10T08:47:27.005Z,101131.44
2023-10-10T08:48:35.492Z,101133.25
2023-10-10T08:49:38.702Z,101129.22
2023-10-10T08:50:43.953Z,101134.78
2023-10-10T08:51:47.057Z,101138.97
2023-10-10T08:52:50.069Z,101136.84
2023-10-10T08:53:54.863Z,101142.44
2023-10-10T08:54:59.899Z,101136.59
2023-10-10T08:56:04.441Z,101140.34
2023-10-10T08:57:13.675Z,101129.94
2023-10-10T08:58:16.698Z,101134.56
2023-10-10T08:59:19.762Z,101128.13
2023-10-10T09:00:28.367Z,101131.72
2023-10-10T09:01:39.733Z,101124.22
2023-10-10T09:02:43.063Z,101122.13
2023-10-10T09:03:46.849Z,101125.00
2023-10-10T09:04:52.083Z,101129.31
2023-10-10T09:05:56.888Z,101130.19
2023-10-10T09:07:01.739Z,101131.97
2023-10-10T09:08:17.603Z,101133.66
2023-10-10T09:09:41.098Z,101138.94
2023-10-10T09:10:47.372Z,101152.84
2023-10-10T09:11:50.858Z,101152.03
2023-10-10T09:12:54.539Z,101143.13
2023-10-10T09:13:57.865Z,101151.19
2023-10-10T09:15:18.446Z,101148.97
2023-10-10T09:16:42.834Z,101150.09
2023-10-10T09:17:47.279Z,101158.31
2023-10-10T09:19:12.803Z,101157.38
2023-10-10T09:20:30.291Z,101166.56
2023-10-10T09:21:45.627Z,101164.59
2023-10-10T09:22:53.181Z,101171.84
2023-10-10T09:24:27.551Z,101167.38
2023-10-10T09:25:42.996Z,101156.53
2023-10-10T09:26:46.166Z,101158.88
2023-10-10T09:28:05.104Z,101152.59
2023-10-10T09:29:17.380Z,101161.09
2023-10-10T09:30:22.364Z,101150.09
2023-10-10T09:31:28.186Z,101153.13
2023-10-10T09:32:44.056Z,101153.94
2023-10-10T09:33:55.621Z,101156.59
2023-10-10T09:34:59.300Z,101151.59
2023-10-10T09:36:10.719Z,101151.69
2023-10-10T09:37:27.177Z,101155.56
2023-10-10T09:38:41.907Z,101159.63
2023-10-10T09:39:56.829Z,101162.41
2023-10-10T09:41:24.109Z,101167.06
2023-10-10T09:42:43.963Z,101169.00
2023-10-10T09:44:16.210Z,101175.94
2023-10-10T09:45:39.924Z,101175.41
2023-10-10T09:47:02.941Z,101168.47
2023-10-10T09:48:39.343Z,101169.53
2023-10-10T09:49:44.424Z,101164.53
2023-10-10T09:51:08.254Z,101174.31
2023-10-10T09:52:37.563Z,101169.97
2023-10-10T09:53:41.386Z,101161.47
2023-10-10T09:54:45.994Z,101164.63
2023-10-10T09:55:54.585Z,101167.28
2023-10-10T09:57:00.228Z,101170.06
2023-10-10T09:58:07.958Z,101165.03
2023-10-10T09:59:11.668Z,101162.63
2023-10-10T10:00:26.817Z,101164.56
2023-10-10T10:01:30.714Z,101166.59
2023-10-10T10:02:41.865Z,101172.16
2023-10-10T10:04:01.454Z,101174.41
2023-10-10T10:05:15.176Z,101173.59
2023-10-10T10:07:05.951Z,101168.84
2023-10-10T10:08:23.325Z,101169.72
2023-10-10T10:09:40.138Z,101168.44
2023-10-10T10:11:12.427Z,101161.00
2023-10-10T10:12:42.509Z,101159.34
2023-10-10T10:14:22.057Z,101146.22
2023-10-10T10:15:53.621Z,101149.41
2023-10-10T10:17:26.215Z,101146.72
2023-10-10T10:18:45.761Z,101141.78
2023-10-10T10:19:49.864Z,101141.56
2023-10-10T10:21:11.368Z,101144.88
2023-10-10T10:22:22.833Z,101149.63
2023-10-10T10:23:34.431Z,101147.69
2023-10-10T10:25:08.911Z,101150.59
2023-10-10T10:26:22.716Z,101159.81
2023-10-10T10:27:33.136Z,101160.22
2023-10-10T10:28:38.098Z,101151.56
2023-10-10T10:29:55.208Z,101152.03
2023-10-10T10:30:59.425Z,101152.63
2023-10-10T10:32:02.627Z,101151.31
2023-10-10T10:33:10.941Z,101152.75
2023-10-10T10:34:32.650Z,101155.50
2023-10-10T10:35:59.344Z,101156.53
2023-10-10T10:37:21.352Z,101149.16
2023-10-10T10:38:24.957Z,101153.44
2023-10-10T10:39:35.817Z,101151.94
2023-10-10T10:40:41.623Z,101149.84
2023-10-10T10:41:52.985Z,101154.13
2023-10-10T10:43:02.107Z,101146.03
2023-10-10T10:44:10.308Z,101147.72
2023-10-10T10:45:42.014Z,101152.19
2023-10-10T10:46:49.539Z,101151.06
2023-10-10T10:48:00.851Z,101149.88
2023-10-10T10:49:09.144Z,101153.91
2023-10-10T10:50:29.912Z,101149.97
2023-10-10T10:51:45.788Z,101158.47
2023-10-10T10:52:58.432Z,101152.03
2023-10-10T10:54:01.428Z,101148.38
2023-10-10T10:55:22.780Z,101143.84
2023-10-10T10:56:33.151Z,101144.50
2023-10-10T10:57:50.194Z,101145.13
2023-10-10T10:58:56.607Z,101145.13
2023-10-10T10:59:59.721Z,101148.75
2023-10-10T11:01:18.035Z,101143.47
2023-10-10T11:02:36.856Z,101143.59
2023-10-10T11:03:39.994Z,101139.38
2023-10-10T11:04:51.527Z,101137.91
2023-10-10T11:05:56.416Z,101139.88
2023-10-10T11:07:07.030Z,101137.53
2023-10-10T11:08:13.266Z,101136.09
2023-10-10T11:09:29.825Z,101139.50
2023-10-10T11:10:39.164Z,101144.31
2023-10-10T11:11:42.410Z,101142.72
2023-10-10T11:12:46.015Z,101143.09
2023-10-10T11:13:50.207Z,101145.75
2023-10-10T11:14:55.165Z,101143.94
2023-10-10T11:16:11.953Z,101148.78
2023-10-10T11:17:21.167Z,101153.84
2023-10-10T11:18:36.332Z,101154.09
2023-10-10T11:19:42.327Z,101153.44
2023-10-10T11:20:57.939Z,101146.47
2023-10-10T11:22:06.744Z,101142.16
2023-10-10T11:23:13.627Z,101139.56
2023-10-10T11:24:27.694Z,101138.53
2023-10-10T11:25:42.839Z,101133.53
2023-10-10T11:26:46.212Z,101136.94
2023-10-10T11:27:50.266Z,101134.50
2023-10-10T11:29:00.421Z,101133.31
2023-10-10T11:30:09.867Z,101136.63
2023-10-10T11:31:13.427Z,101132.94
2023-10-10T11:32:25.370Z,101129.59
2023-10-10T11:33:50.061Z,101115.56
2023-10-10T11:34:57.810Z,101121.38
2023-10-10T11:36:25.798Z,101123.41
2023-10-10T11:37:32.508Z,101117.66
2023-10-10T11:38:37.031Z,101127.31
2023-10-10T11:39:48.153Z,101120.25
2023-10-10T11:40:54.136Z,101123.50
2023-10-10T11:41:57.215Z,101113.75
2023-10-10T11:43:05.796Z,101121.13
2023-10-10T11:44:08.818Z,101118.13
2023-10-10T11:45:11.980Z,101121.31
2023-10-10T11:46:15.633Z,101122.84
2023-10-10T11:47:26.111Z,101121.34
2023-10-10T11:48:30.649Z,101115.16
2023-10-10T11:49:33.736Z,101124.97
2023-10-10T11:50:58.511Z,101113.19
2023-10-10T11:52:01.739Z,101110.06
2023-10-10T11:53:06.979Z,101110.22
2023-10-10T11:54:10.000Z,101123.16
2023-10-10T11:55:15.390Z,101107.97
2023-10-10T11:56:18.713Z,101108.63
2023-10-10T11:57:21.819Z,101109.59
2023-10-10T11:58:37.494Z,101114.28
2023-10-10T11:59:45.509Z,101099.38
2023-10-10T12:01:05.354Z,101102.72
2023-10-10T12:02:08.929Z,101106.38
2023-10-10T12:03:33.870Z,101105.72
2023-10-10T12:04:39.104Z,101102.56
2023-10-10T12:05:52.033Z,101104.41
2023-10-10T12:06:57.165Z,101103.91
2023-10-10T12:08:07.663Z,101108.72
2023-10-10T12:09:11.977Z,101099.72
2023-10-10T12:10:15.613Z,101094.25
2023-10-10T12:11:23.251Z,101090.78
2023-10-10T12:12:27.142Z,101093.63
2023-10-10T12:13:30.157Z,101090.28
2023-10-10T12:14:33.518Z,101094.75
2023-10-10T12:15:41.434Z,101089.25
2023-10-10T12:16:44.499Z,101091.91
2023-10-10T12:17:49.207Z,101092.25
2023-10-10T12:18:54.091Z,101084.97
2023-10-10T12:19:58.073Z,101084.78
2023-10-10T12:21:03.637Z,101080.13
2023-10-10T12:22:09.957Z,101091.44
2023-10-10T12:23:13.366Z,101079.16
2023-10-10T12:24:16.541Z,101081.94
2023-10-10T12:25:19.716Z,101081.94
2023-10-10T12:26:23.742Z,101084.78
2023-10-10T12:27:31.333Z,101084.63
2023-10-10T12:28:34.564Z,101086.97
2023-10-10T12:29:41.451Z,101074.53
2023-10-10T12:30:45.399Z,101078.38
2023-10-10T12:31:56.768Z,101077.22
2023-10-10T12:32:59.993Z,101080.53
2023-10-10T12:34:04.054Z,101073.75
2023-10-10T12:35:11.366Z,101078.72
2023-10-10T12:36:14.352Z,101082.72
2023-10-10T12:37:17.368Z,101075.91
2023-10-10T12:38:23.869Z,101078.59
2023-10-10T12:39:29.634Z,101077.56
2023-10-10T12:40:34.770Z,101081.56
2023-10-10T12:41:47.439Z,101086.03
2023-10-10T12:42:52.094Z,101084.53
2023-10-10T12:43:55.142Z,101076.91
2023-10-10T12:45:02.471Z,101080.91
2023-10-10T12:46:08.641Z,101074.09
2023-10-10T12:47:16.964Z,101077.72
2023-10-10T12:48:23.041Z,101080.91
2023-10-10T12:49:37.716Z,101086.22
2023-10-10T12:50:45.442Z,101087.19
2023-10-10T12:51:48.780Z,101085.88
2023-10-10T12:53:03.337Z,101079.75
2023-10-10T12:54:07.446Z,101091.00
2023-10-10T12:55:11.365Z,101080.91
2023-10-10T12:56:21.466Z,101080.22
2023-10-10T12:57:24.853Z,101086.38
2023-10-10T12:58:29.316Z,101090.03
2023-10-10T12:59:34.670Z,101087.53
2023-10-10T13:00:38.896Z,101081.72
2023-10-10T13:01:41.920Z,101079.22
2023-10-10T13:02:45.883Z,101080.22
2023-10-10T13:03:49.491Z,101082.56
2023-10-10T13:04:54.119Z,101080.06
2023-10-10T13:06:01.689Z,101078.91
2023-10-10T13:07:05.752Z,101085.41
2023-10-10T13:08:10.409Z,101082.25
2023-10-10T13:09:16.198Z,101088.25
2023-10-10T13:10:19.225Z,101087.41
2023-10-10T13:11:45.150Z,101085.25
2023-10-10T13:12:52.797Z,101080.94
2023-10-10T13:14:00.582Z,101074.94
2023-10-10T13:15:22.611Z,101075.25
2023-10-10T13:16:43.858Z,101073.59
2023-10-10T13:18:16.765Z,101074.59
2023-10-10T13:19:22.028Z,101073.91
2023-10-10T13:20:25.168Z,101072.06
2023-10-10T13:21:28.266Z,101071.25
2023-10-10T13:22:31.717Z,101070.41
2023-10-10T13:23:36.763Z,101071.41
2023-10-10T13:24:39.784Z,101064.63
2023-10-10T13:25:42.824Z,101068.59